Time;durP1;ratioP1;P1;durP2;ratioP2;P2;SDS_P1;SDS_P2;PMS_P1;PMS_P2;Temp;Humidity;BMP_temperature;BMP_pressure;BME280_temperature;BME280_humidity;BME280_pressure;Samples;Min_cycle;Max_cycle;Signal;HPM_P1;HPM_P2
2022/03/27 00:03:41;;;;;;;32.20;24.13;;;;;;;11.98;41.28;99135.56;8349881;28;20235;-64
2022/03/27 00:07:44;;;;;;;31.10;22.93;;;;;;;12.00;41.13;99140.69;8350720;28;20232;-65
2022/03/27 00:11:47;;;;;;;35.90;23.83;;;;;;;11.90;41.34;99140.13;8350454;28;20236;-64
2022/03/27 00:15:52;;;;;;;30.93;22.73;;;;;;;11.93;41.14;99137.44;8350239;28;20235;-64
2022/03/27 00:19:56;;;;;;;38.33;21.60;;;;;;;11.90;41.36;99135.78;8350252;28;20683;-65
2022/03/27 00:24:01;;;;;;;38.57;22.43;;;;;;;11.88;41.12;99139.28;8350156;28;20236;-67
2022/03/27 00:28:04;;;;;;;32.90;21.60;;;;;;;11.74;41.51;99134.53;8349962;28;20243;-64
2022/03/27 00:32:08;;;;;;;33.73;21.67;;;;;;;11.63;41.61;99127.09;8349985;28;20227;-64
2022/03/27 00:36:13;;;;;;;32.50;21.60;;;;;;;11.67;41.78;99135.59;8333173;28;20315;-64
2022/03/27 00:40:16;;;;;;;30.20;21.67;;;;;;;11.67;41.42;99131.28;8349958;28;20236;-64
2022/03/27 00:44:19;;;;;;;31.37;22.43;;;;;;;11.56;41.44;99133.34;8339172;28;20239;-64
2022/03/27 00:48:24;;;;;;;31.57;21.17;;;;;;;11.50;41.42;99123.16;8348866;28;20239;-64
2022/03/27 00:52:27;;;;;;;34.37;21.83;;;;;;;11.47;41.39;99126.66;8349313;28;20240;-64
2022/03/27 00:56:30;;;;;;;28.70;21.63;;;;;;;11.33;41.45;99127.06;8349117;28;20440;-65
2022/03/27 01:00:44;;;;;;;35.63;21.33;;;;;;;11.44;41.25;99134.56;8349043;28;20228;-65
2022/03/27 01:04:49;;;;;;;29.17;21.40;;;;;;;11.39;41.51;99125.22;8369305;22;20236;-91
2022/03/27 01:13:22;;;;;;;30.37;20.97;;;;;;;11.31;41.92;99128.88;8349478;28;20413;-90
2022/03/27 01:17:27;;;;;;;33.40;20.93;;;;;;;11.09;41.49;99117.41;8349570;28;20236;-90
2022/03/27 01:21:32;;;;;;;29.23;20.63;;;;;;;11.10;41.67;99116.50;8349544;28;20423;-91
2022/03/27 01:25:36;;;;;;;33.97;20.97;;;;;;;11.21;41.44;99111.84;8331137;28;20236;-90
2022/03/27 01:29:40;;;;;;;30.70;20.97;;;;;;;11.09;41.46;99114.81;8349747;28;20232;-90
2022/03/27 01:33:44;;;;;;;29.57;21.97;;;;;;;11.03;42.06;99117.59;8337146;28;20236;-90
2022/03/27 01:37:49;;;;;;;34.13;21.53;;;;;;;11.09;41.81;99118.25;8347338;28;20425;-90
2022/03/27 01:41:53;;;;;;;39.30;21.90;;;;;;;11.00;41.95;99112.47;8347698;28;20231;-92
2022/03/27 01:45:56;;;;;;;31.10;21.00;;;;;;;11.00;41.67;99105.53;8349927;28;20197;-93
2022/03/27 01:49:59;;;;;;;30.13;21.90;;;;;;;10.92;42.43;99112.69;8349664;28;20204;-93
2022/03/27 01:54:05;;;;;;;31.83;22.33;;;;;;;10.92;42.29;99110.94;8349269;28;20201;-92
2022/03/27 01:58:09;;;;;;;29.00;21.03;;;;;;;10.97;42.21;99113.41;8350712;28;20542;-93
2022/03/27 02:02:12;;;;;;;33.57;20.40;;;;;;;10.92;42.31;99108.34;8350698;28;20201;-93
2022/03/27 02:06:17;;;;;;;30.60;21.13;;;;;;;10.83;42.21;99102.56;8347784;28;20313;-93
2022/03/27 02:10:22;;;;;;;35.37;21.53;;;;;;;10.68;42.13;99101.22;8348008;28;20232;-89
2022/03/27 02:14:25;;;;;;;34.90;21.67;;;;;;;10.65;42.59;99112.53;8348126;28;20244;-90
2022/03/27 02:18:29;;;;;;;27.50;20.97;;;;;;;10.61;42.66;99107.50;8346079;28;20228;-90
2022/03/27 02:22:33;;;;;;;30.13;21.33;;;;;;;10.59;42.71;99104.09;8347683;28;20232;-88
2022/03/27 02:26:44;;;;;;;27.60;21.20;;;;;;;10.40;42.99;99104.56;8346104;28;20242;-88
2022/03/27 02:30:48;;;;;;;28.30;21.57;;;;;;;10.47;43.42;99106.09;8347441;28;20227;-88
2022/03/27 02:34:51;;;;;;;31.70;20.67;;;;;;;10.41;43.58;99108.00;8347100;28;20235;-88
2022/03/27 02:38:54;;;;;;;27.77;21.10;;;;;;;10.46;43.39;99106.13;8352330;28;20236;-89
2022/03/27 02:42:59;;;;;;;33.53;21.83;;;;;;;10.44;43.36;99106.16;8353755;28;20593;-87
2022/03/27 02:47:04;;;;;;;32.37;20.90;;;;;;;10.36;43.42;99106.38;8353775;28;20231;-87
2022/03/27 02:51:08;;;;;;;26.97;19.67;;;;;;;10.34;43.58;99104.72;8352132;28;20224;-88
2022/03/27 02:55:11;;;;;;;29.07;20.50;;;;;;;10.31;43.18;99103.03;8352643;28;20224;-88
2022/03/27 02:59:17;;;;;;;27.13;20.77;;;;;;;10.17;43.45;99105.09;8353318;28;20240;-90
2022/03/27 03:03:21;;;;;;;27.33;19.70;;;;;;;10.27;43.38;99095.38;8353535;28;20560;-90
2022/03/27 03:07:25;;;;;;;34.50;21.37;;;;;;;10.02;43.87;99105.47;8351996;28;20306;-90
2022/03/27 03:11:28;;;;;;;30.10;20.13;;;;;;;10.17;43.01;99111.13;8353491;28;20246;-90
2022/03/27 03:15:33;;;;;;;32.50;20.53;;;;;;;10.15;43.52;99107.72;8353300;28;20235;-89
2022/03/27 03:19:37;;;;;;;30.17;20.63;;;;;;;10.14;44.01;99102.56;8352831;28;20424;-89
2022/03/27 03:23:40;;;;;;;31.13;20.60;;;;;;;10.12;44.29;99104.34;8352735;28;20270;-89
2022/03/27 03:27:44;;;;;;;26.23;20.83;;;;;;;10.17;44.31;99105.09;8352706;28;20232;-90
2022/03/27 03:31:49;;;;;;;29.33;21.27;;;;;;;10.03;44.35;99108.00;8352247;28;20228;-89
2022/03/27 03:35:52;;;;;;;27.07;19.77;;;;;;;10.01;44.93;99114.94;8352469;28;20449;-89
2022/03/27 03:39:56;;;;;;;29.67;19.83;;;;;;;10.02;45.24;99110.66;8350919;28;20558;-89
2022/03/27 03:43:59;;;;;;;29.27;19.93;;;;;;;10.04;45.10;99106.28;8352099;28;20251;-90
2022/03/27 03:48:05;;;;;;;26.73;19.87;;;;;;;9.98;44.91;99108.13;8350824;28;20538;-91
2022/03/27 03:52:08;;;;;;;31.43;20.47;;;;;;;9.90;44.92;99111.75;8352414;28;20231;-91
2022/03/27 03:56:12;;;;;;;31.40;20.10;;;;;;;9.97;45.42;99113.34;8327255;28;20235;-92
2022/03/27 04:00:16;;;;;;;31.97;20.73;;;;;;;10.06;44.96;99113.13;8351039;28;20236;-90
2022/03/27 04:04:20;;;;;;;26.77;19.73;;;;;;;10.03;45.00;99122.69;8351932;28;20255;-92
2022/03/27 04:08:23;;;;;;;32.90;20.03;;;;;;;9.80;45.23;99108.53;8351693;28;20542;-92
2022/03/27 04:12:28;;;;;;;25.97;19.63;;;;;;;9.87;44.94;99115.28;8350819;28;20244;-92
2022/03/27 04:16:31;;;;;;;30.00;20.50;;;;;;;9.75;45.17;99113.84;8351086;28;20235;-92
2022/03/27 04:20:36;;;;;;;25.00;20.17;;;;;;;9.74;44.63;99116.44;8351698;28;20232;-92
2022/03/27 04:24:39;;;;;;;31.90;20.17;;;;;;;9.62;44.49;99121.91;8368699;28;20232;-92
2022/03/27 04:28:42;;;;;;;30.67;20.47;;;;;;;9.70;44.29;99118.25;8352317;28;20235;-92
2022/03/27 04:32:45;;;;;;;27.93;19.37;;;;;;;9.68;44.39;99119.19;8350797;28;20231;-92
2022/03/27 04:36:52;;;;;;;27.60;19.40;;;;;;;9.59;45.05;99109.88;8350154;28;20238;-90
2022/03/27 04:40:55;;;;;;;29.57;19.73;;;;;;;9.61;45.11;99118.44;8333737;28;20231;-92
2022/03/27 04:44:58;;;;;;;27.83;18.57;;;;;;;9.58;45.18;99126.31;8349496;28;20238;-94
2022/03/27 04:49:02;;;;;;;27.00;19.17;;;;;;;9.56;45.50;99117.72;8350222;28;20227;-94
2022/03/27 04:53:07;;;;;;;29.83;19.90;;;;;;;9.59;44.80;99127.97;8350083;28;20422;-93
2022/03/27 04:57:10;;;;;;;28.07;21.00;;;;;;;9.51;45.17;99129.91;8350388;28;20377;-93
2022/03/27 05:01:14;;;;;;;29.00;21.37;;;;;;;9.41;45.35;99137.00;8348935;28;20232;-89
2022/03/27 05:05:18;;;;;;;24.30;19.50;;;;;;;9.48;44.79;99138.59;8348053;28;20244;-89
2022/03/27 05:09:24;;;;;;;24.63;19.00;;;;;;;9.46;44.71;99131.72;8348574;28;20239;-91
2022/03/27 05:13:27;;;;;;;26.93;19.37;;;;;;;9.36;45.08;99129.31;8348602;28;20236;-90
2022/03/27 05:17:31;;;;;;;26.57;19.73;;;;;;;9.38;44.38;99140.47;8349320;28;20232;-91
2022/03/27 05:21:34;;;;;;;32.00;19.10;;;;;;;9.34;44.61;99138.00;8348403;28;20238;-91
2022/03/27 05:25:45;;;;;;;25.90;19.23;;;;;;;9.53;44.70;99144.47;8348949;28;20232;-95
2022/03/27 05:29:48;;;;;;;26.87;19.13;;;;;;;9.45;44.73;99133.47;8350228;28;20243;-93
2022/03/27 05:33:51;;;;;;;28.53;19.37;;;;;;;9.71;44.43;99144.97;8348778;28;20228;-87
2022/03/27 05:37:59;;;;;;;24.80;19.07;;;;;;;9.79;44.71;99137.91;8347421;28;20231;-87
2022/03/27 05:42:04;;;;;;;27.00;18.80;;;;;;;10.13;43.93;99144.91;8354034;28;20228;-94
2022/03/27 05:46:07;;;;;;;27.37;18.50;;;;;;;10.33;43.80;99149.63;8367238;28;20228;-90
2022/03/27 05:50:12;;;;;;;21.50;17.70;;;;;;;10.64;43.29;99141.06;8351377;28;20403;-92
2022/03/27 05:54:15;;;;;;;28.53;18.90;;;;;;;10.89;42.87;99141.25;8360932;28;20474;-94
2022/03/27 05:58:20;;;;;;;28.90;18.23;;;;;;;11.02;42.69;99149.56;8328714;28;20236;-96
2022/03/27 06:02:23;;;;;;;25.03;18.60;;;;;;;11.09;42.64;99149.34;8347112;28;20239;-88
2022/03/27 06:06:30;;;;;;;27.40;19.93;;;;;;;11.40;41.92;99143.28;8338583;28;20543;-88
2022/03/27 06:10:34;;;;;;;28.50;20.53;;;;;;;11.58;41.58;99154.06;8298091;28;20311;-88
2022/03/27 06:14:38;;;;;;;26.47;19.47;;;;;;;12.03;40.88;99170.00;8314256;28;20243;-88
2022/03/27 06:18:41;;;;;;;27.97;18.87;;;;;;;12.37;39.84;99168.91;8315788;28;20240;-89
2022/03/27 06:22:45;;;;;;;25.57;18.73;;;;;;;12.36;40.33;99169.84;8315887;28;20403;-89
2022/03/27 06:26:48;;;;;;;29.17;18.50;;;;;;;12.58;40.15;99166.53;8326181;28;20233;-88
2022/03/27 06:30:53;;;;;;;29.73;20.17;;;;;;;12.82;38.89;99176.09;8319976;28;20235;-88
2022/03/27 06:34:58;;;;;;;29.07;19.40;;;;;;;12.67;39.41;99174.00;8313866;28;20229;-88
2022/03/27 06:39:01;;;;;;;30.67;20.70;;;;;;;13.00;38.92;99171.16;8314481;28;20663;-88
2022/03/27 06:43:05;;;;;;;27.50;19.53;;;;;;;13.29;38.82;99183.97;8320593;28;20225;-94
2022/03/27 06:47:10;;;;;;;30.03;19.50;;;;;;;13.62;38.36;99181.06;8330608;28;20229;-94
2022/03/27 06:51:13;;;;;;;31.33;21.10;;;;;;;13.67;38.33;99180.91;8327669;28;20231;-86
2022/03/27 06:55:17;;;;;;;23.17;19.17;;;;;;;13.94;38.48;99181.59;8329524;28;20284;-87
2022/03/27 06:59:21;;;;;;;30.67;19.30;;;;;;;14.20;38.16;99180.59;8329499;28;20541;-87
2022/03/27 07:03:24;;;;;;;28.20;19.63;;;;;;;14.25;38.24;99172.56;8329970;28;20228;-87
2022/03/27 07:07:28;;;;;;;25.13;18.43;;;;;;;14.64;37.92;99185.78;8329737;28;20299;-87
2022/03/27 07:11:31;;;;;;;23.23;18.60;;;;;;;14.83;38.06;99170.22;8326964;28;20237;-86
2022/03/27 07:15:35;;;;;;;30.37;18.60;;;;;;;15.29;38.27;99172.59;8346115;28;20235;-85
2022/03/27 07:19:39;;;;;;;25.07;18.53;;;;;;;15.67;38.19;99175.22;8340264;28;20255;-85
2022/03/27 07:23:44;;;;;;;28.73;20.00;;;;;;;15.69;38.19;99175.13;8317105;28;20233;-86
2022/03/27 07:27:48;;;;;;;25.03;18.33;;;;;;;15.90;38.13;99182.03;8319328;28;20251;-85
2022/03/27 07:31:51;;;;;;;23.93;18.50;;;;;;;16.45;37.25;99180.28;8318851;28;20238;-85
2022/03/27 07:36:03;;;;;;;23.63;17.47;;;;;;;16.73;37.11;99179.75;8350604;28;20232;-87
2022/03/27 07:40:08;;;;;;;27.23;18.27;;;;;;;16.95;37.08;99182.19;8323562;28;20237;-86
2022/03/27 07:44:12;;;;;;;23.83;18.53;;;;;;;17.05;37.30;99187.78;8335068;28;20228;-86
2022/03/27 07:48:15;;;;;;;19.07;9.27;;;;;;;18.48;48.43;99195.78;8342623;28;20228;-88
2022/03/27 07:52:20;;;;;;;21.67;11.20;;;;;;;19.14;42.78;99184.06;8341642;28;20232;-83
2022/03/27 07:56:23;;;;;;;28.13;13.93;;;;;;;19.69;39.33;99185.94;8333424;28;20533;-81
2022/03/27 08:00:27;;;;;;;19.07;14.00;;;;;;;19.95;38.40;99185.25;8337828;28;20232;-81
2022/03/27 08:04:31;;;;;;;20.13;14.23;;;;;;;20.01;37.11;99184.84;8338198;28;20232;-85
2022/03/27 08:08:35;;;;;;;19.10;15.63;;;;;;;19.96;36.62;99189.59;8336161;28;20263;-86
2022/03/27 08:12:38;;;;;;;21.27;16.70;;;;;;;20.18;36.31;99187.28;8340113;28;20251;-86
2022/03/27 08:16:41;;;;;;;18.53;15.43;;;;;;;20.37;35.25;99181.66;8332789;28;20231;-85
2022/03/27 08:20:45;;;;;;;20.37;15.70;;;;;;;20.65;34.88;99183.31;8332538;28;20238;-85
2022/03/27 08:24:49;;;;;;;20.13;15.20;;;;;;;20.70;34.95;99181.22;8333296;28;20232;-93
2022/03/27 08:28:52;;;;;;;23.63;16.50;;;;;;;20.98;34.25;99183.78;8332413;28;20231;-94
2022/03/27 08:32:56;;;;;;;19.03;15.07;;;;;;;21.24;34.20;99171.47;8318660;28;20417;-93
2022/03/27 08:37:01;;;;;;;20.67;16.80;;;;;;;21.31;33.92;99177.16;8335712;28;20228;-96
2022/03/27 08:41:06;;;;;;;26.90;18.43;;;;;;;21.26;32.48;99169.56;8335286;28;20251;-88
2022/03/27 08:45:10;;;;;;;21.53;18.80;;;;;;;20.72;32.99;99183.75;8332749;28;20251;-88
2022/03/27 08:49:28;;;;;;;27.60;20.50;;;;;;;20.58;33.19;99181.16;8335704;28;20234;-88
2022/03/27 08:53:39;;;;;;;21.47;18.57;;;;;;;21.66;32.22;99174.72;8332181;28;20241;-89
2022/03/27 08:58:00;;;;;;;25.63;19.07;;;;;;;21.76;32.31;99165.22;8334856;28;20229;-87
2022/03/27 09:02:04;;;;;;;24.60;18.67;;;;;;;22.39;30.57;99170.34;8326281;28;20241;-88
2022/03/27 09:06:12;;;;;;;24.80;19.60;;;;;;;22.50;30.57;99174.84;8329635;28;20239;-88
2022/03/27 09:10:16;;;;;;;22.67;19.70;;;;;;;22.22;30.21;99174.22;8350088;28;20239;-88
2022/03/27 09:14:24;;;;;;;24.90;21.53;;;;;;;21.46;31.47;99163.78;8350751;28;20260;-89
2022/03/27 09:18:43;;;;;;;23.23;20.17;;;;;;;21.95;31.35;99162.09;8349202;28;20235;-89
2022/03/27 09:22:51;;;;;;;21.50;19.30;;;;;;;22.76;30.23;99170.25;8349382;28;20234;-90
2022/03/27 09:27:00;;;;;;;24.00;19.77;;;;;;;22.73;30.15;99168.69;8351380;28;20234;-89
2022/03/27 09:31:09;;;;;;;22.87;18.53;;;;;;;22.94;29.77;99158.28;8349858;28;20230;-89
2022/03/27 09:35:14;;;;;;;21.97;19.53;;;;;;;22.93;29.36;99163.69;8341163;28;20247;-90
2022/03/27 09:39:20;;;;;;;22.37;18.50;;;;;;;23.22;29.21;99158.81;8348591;28;20242;-89
2022/03/27 09:43:23;;;;;;;21.93;19.17;;;;;;;22.98;28.91;99151.81;8349196;28;20414;-90
2022/03/27 09:47:30;;;;;;;20.83;18.10;;;;;;;23.31;28.79;99144.06;8333419;28;20544;-90
2022/03/27 09:51:33;;;;;;;24.57;18.60;;;;;;;23.51;28.39;99145.13;8331329;28;20236;-90
2022/03/27 09:55:37;;;;;;;25.17;16.23;;;;;;;23.92;28.59;99141.00;8314568;28;20236;-89
2022/03/27 09:59:41;;;;;;;17.83;15.97;;;;;;;24.18;28.82;99138.88;8299932;28;20243;-90
2022/03/27 10:04:01;;;;;;;22.87;18.00;;;;;;;23.48;28.42;99125.06;8318782;28;20302;-92
2022/03/27 10:08:05;;;;;;;20.97;17.93;;;;;;;22.81;29.48;99128.50;8325499;28;20227;-86
2022/03/27 10:12:09;;;;;;;27.53;15.43;;;;;;;23.66;28.69;99122.75;8347901;28;20232;-86
2022/03/27 10:16:15;;;;;;;15.87;14.33;;;;;;;24.25;28.03;99118.84;8347112;28;20270;-86
2022/03/27 10:20:22;;;;;;;27.77;14.90;;;;;;;24.32;28.06;99119.22;8341347;28;20244;-85
2022/03/27 10:24:28;;;;;;;17.70;15.90;;;;;;;24.68;27.70;99109.19;8347488;28;20246;-88
2022/03/27 10:28:33;;;;;;;16.10;14.40;;;;;;;24.84;27.27;99101.59;8346945;28;20240;-87
2022/03/27 10:32:37;;;;;;;20.37;16.10;;;;;;;24.78;27.15;99097.66;8347377;28;20262;-88
2022/03/27 10:36:52;;;;;;;12.93;11.63;;;;;;;24.64;26.83;99087.41;8347008;28;20236;-89
2022/03/27 10:41:01;;;;;;;14.10;11.27;;;;;;;24.80;27.03;99084.28;8347290;28;20446;-89
2022/03/27 10:45:08;;;;;;;13.57;11.90;;;;;;;25.10;26.53;99082.63;8347049;28;20232;-87
2022/03/27 10:49:13;;;;;;;15.03;11.50;;;;;;;24.22;27.69;99083.88;8346624;28;20250;-86
2022/03/27 10:53:18;;;;;;;12.20;10.17;;;;;;;24.04;27.72;99079.13;8346478;28;20285;-89
2022/03/27 10:57:29;;;;;;;14.73;11.23;;;;;;;23.93;27.63;99079.19;8347591;28;20259;-87
2022/03/27 11:01:41;;;;;;;11.27;9.83;;;;;;;24.57;26.56;99076.47;8351610;28;20534;-87
2022/03/27 11:06:00;;;;;;;11.63;8.00;;;;;;;24.69;30.08;99069.31;8352476;28;20236;-84
2022/03/27 11:10:40;;;;;;;11.47;9.80;;;;;;;23.67;27.72;99054.84;8352269;28;20232;-82
2022/03/27 11:14:59;;;;;;;10.07;8.23;;;;;;;24.05;28.32;99057.03;8343529;28;20239;-82
2022/03/27 11:19:02;;;;;;;10.27;6.87;;;;;;;24.15;28.38;99063.22;8352186;28;20228;-83
2022/03/27 11:23:08;;;;;;;9.13;7.10;;;;;;;24.47;27.88;99061.50;8349244;28;20231;-83
2022/03/27 11:27:53;;;;;;;13.60;7.93;;;;;;;24.87;27.18;99039.56;8330700;28;20227;-84
2022/03/27 11:32:08;;;;;;;9.30;7.43;;;;;;;25.09;26.40;99052.63;8345337;28;20239;-84
2022/03/27 11:36:24;;;;;;;9.77;7.83;;;;;;;25.10;26.16;99051.66;8351589;28;20237;-84
2022/03/27 11:40:41;;;;;;;11.67;8.00;;;;;;;25.14;26.68;99046.91;8351825;28;20240;-84
2022/03/27 11:49:06;;;;;;;12.17;9.00;;;;;;;24.28;27.57;99046.31;8351528;28;20227;-84
2022/03/27 11:53:09;;;;;;;10.37;8.10;;;;;;;24.96;26.79;99036.97;8351065;28;20236;-84
2022/03/27 11:57:12;;;;;;;9.33;7.07;;;;;;;24.92;26.55;99035.56;8319769;28;20380;-83
2022/03/27 12:01:17;;;;;;;106.73;10.30;;;;;;;25.18;26.16;99035.91;8344612;28;20240;-86
2022/03/27 12:05:21;;;;;;;8.67;4.57;;;;;;;25.26;26.42;99031.78;8350810;28;20236;-87
2022/03/27 12:09:27;;;;;;;5.53;4.57;;;;;;;24.54;26.67;99034.41;8350698;28;20254;-86
2022/03/27 12:13:35;;;;;;;6.90;5.30;;;;;;;23.54;27.75;99024.09;8351047;28;20239;-87
2022/03/27 12:17:46;;;;;;;7.00;5.60;;;;;;;24.32;27.48;99014.16;8348399;28;20228;-84
2022/03/27 12:21:49;;;;;;;7.57;4.73;;;;;;;24.81;27.14;99017.09;8335806;28;20236;-84
2022/03/27 12:26:01;;;;;;;10.87;6.37;;;;;;;24.24;27.09;99015.78;8349814;28;20239;-88
2022/03/27 12:30:03;;;;;;;6.97;6.17;;;;;;;24.22;27.18;99009.75;8348239;28;20232;-87
2022/03/27 12:34:08;;;;;;;7.77;5.60;;;;;;;24.48;27.06;98996.97;8350399;28;20543;-91
2022/03/27 12:38:11;;;;;;;9.20;6.03;;;;;;;24.65;26.69;98999.03;8342268;28;20232;-90
2022/03/27 12:42:39;;;;;;;9.63;6.97;;;;;;;23.97;27.21;98993.31;8350183;28;20445;-85
2022/03/27 12:46:50;;;;;;;6.87;5.57;;;;;;;24.57;26.44;98997.06;8335733;28;20235;-86
2022/03/27 12:50:57;;;;;;;6.27;5.40;;;;;;;24.40;26.37;98982.56;8350282;28;20274;-90
2022/03/27 12:55:03;;;;;;;6.33;5.63;;;;;;;24.41;26.34;98983.44;8350776;28;20239;-87
2022/03/27 12:59:19;;;;;;;12.17;6.27;;;;;;;24.42;26.93;98978.97;8347335;28;20401;-88
2022/03/27 13:03:22;;;;;;;7.17;5.50;;;;;;;24.36;27.10;98973.22;8325422;28;20237;-86
2022/03/27 13:07:54;;;;;;;6.93;5.77;;;;;;;24.81;26.65;98979.16;8316005;28;20261;-88
2022/03/27 13:11:57;;;;;;;6.30;4.87;;;;;;;24.55;27.30;98964.56;8315997;28;20232;-89
2022/03/27 13:16:00;;;;;;;5.37;4.87;;;;;;;23.93;27.95;98976.00;8315959;28;20259;-87
2022/03/27 13:20:05;;;;;;;5.90;5.30;;;;;;;23.40;28.76;98968.91;8322600;28;20292;-87
2022/03/27 13:24:10;;;;;;;6.90;5.40;;;;;;;23.07;28.99;98970.63;8345428;28;20235;-85
2022/03/27 13:28:13;;;;;;;5.67;4.33;;;;;;;23.64;28.27;98965.19;8348033;28;20314;-87
2022/03/27 13:32:16;;;;;;;5.67;4.47;;;;;;;23.89;27.33;98954.25;8348386;28;20243;-88
2022/03/27 13:36:19;;;;;;;6.07;5.47;;;;;;;24.05;27.13;98953.84;8347831;28;20342;-86
2022/03/27 13:42:57;;;;;;;24.53;5.37;;;;;;;24.40;27.03;98948.16;8347556;28;20418;-86
2022/03/27 13:44:49;;;;;;;8.63;4.57;;;;;;;24.67;26.79;98952.06;8345058;28;20424;-88
2022/03/27 13:48:53;;;;;;;6.40;4.50;;;;;;;24.52;26.67;98943.69;8346448;28;20523;-87
2022/03/27 13:52:57;;;;;;;8.53;4.20;;;;;;;25.00;26.45;98934.19;8347035;28;20247;-87
2022/03/27 13:57:05;;;;;;;6.67;3.80;;;;;;;25.03;26.84;98933.91;8347232;28;20255;-85
2022/03/27 14:01:08;;;;;;;11.47;4.17;;;;;;;25.07;26.63;98923.88;8347404;28;20266;-85
2022/03/27 14:05:12;;;;;;;5.73;4.27;;;;;;;25.06;26.39;98931.00;8347092;28;20236;-86
2022/03/27 14:09:15;;;;;;;4.90;3.93;;;;;;;24.87;26.36;98926.50;8347250;28;20236;-88
2022/03/27 14:13:20;;;;;;;4.20;3.80;;;;;;;24.38;26.77;98923.63;8330432;28;20390;-85
2022/03/27 14:17:23;;;;;;;7.07;4.80;;;;;;;24.01;27.50;98918.03;8330583;28;20331;-86
2022/03/27 14:21:26;;;;;;;8.50;4.87;;;;;;;23.50;28.51;98919.59;8323015;28;20243;-88
2022/03/27 14:25:30;;;;;;;6.37;4.43;;;;;;;22.98;29.27;98919.38;8314366;28;20291;-84
2022/03/27 14:29:35;;;;;;;5.20;4.50;;;;;;;22.79;29.94;98919.16;8329353;28;20228;-86
2022/03/27 14:33:38;;;;;;;7.13;4.53;;;;;;;22.59;30.30;98915.47;8353004;28;20242;-87
2022/03/27 14:37:41;;;;;;;7.10;5.40;;;;;;;22.90;29.07;98915.66;8354100;28;20231;-87
2022/03/27 14:41:44;;;;;;;6.13;4.27;;;;;;;23.26;28.63;98918.97;8353869;28;20236;-88
2022/03/27 14:45:51;;;;;;;10.60;4.33;;;;;;;23.39;28.88;98906.41;8352808;28;20294;-85
2022/03/27 14:49:54;;;;;;;7.67;4.50;;;;;;;23.69;28.22;98902.19;8353063;28;20237;-86
2022/03/27 14:58:18;;;;;;;7.03;4.40;;;;;;;23.71;27.86;98894.97;8320682;28;20420;-86
2022/03/27 15:02:22;;;;;;;4.60;3.70;;;;;;;23.78;27.94;98894.38;8340923;28;20240;-87
2022/03/27 15:06:26;;;;;;;5.90;4.63;;;;;;;23.81;28.22;98887.97;8352277;28;20244;-88
2022/03/27 15:10:29;;;;;;;6.57;4.30;;;;;;;23.80;28.08;98879.19;8319935;28;20279;-87
2022/03/27 15:14:32;;;;;;;6.00;4.40;;;;;;;23.82;28.47;98876.44;8320497;28;20267;-87
2022/03/27 15:18:37;;;;;;;6.00;4.47;;;;;;;23.67;28.40;98861.84;8352550;28;20417;-86
2022/03/27 15:22:40;;;;;;;6.97;4.37;;;;;;;23.68;28.50;98866.97;8352303;28;20243;-87
2022/03/27 15:26:44;;;;;;;7.73;4.77;;;;;;;23.60;29.13;98867.63;8352195;28;20247;-87
2022/03/27 15:30:47;;;;;;;5.43;4.33;;;;;;;23.50;29.56;98868.53;8352360;28;20316;-86
2022/03/27 15:34:52;;;;;;;12.17;5.80;;;;;;;23.18;29.46;98872.84;8352180;28;20257;-85
2022/03/27 15:38:56;;;;;;;7.27;5.20;;;;;;;23.30;29.45;98862.25;8353218;28;20227;-89
2022/03/27 15:43:04;;;;;;;6.80;4.97;;;;;;;23.25;29.65;98867.06;8351005;28;20240;-88
2022/03/27 15:47:08;;;;;;;6.30;4.77;;;;;;;23.18;29.81;98862.28;8351653;28;20246;-86
2022/03/27 15:51:12;;;;;;;6.70;6.00;;;;;;;22.80;30.60;98868.03;8351184;28;20235;-86
2022/03/27 15:55:16;;;;;;;6.93;6.23;;;;;;;22.78;30.83;98867.31;8351174;28;20240;-87
2022/03/27 15:59:20;;;;;;;9.27;6.90;;;;;;;22.73;30.83;98858.91;8347181;28;20225;-87
2022/03/27 16:03:23;;;;;;;11.57;6.30;;;;;;;22.44;31.43;98862.09;8332130;28;20241;-88
2022/03/27 16:07:28;;;;;;;7.90;6.10;;;;;;;22.44;31.51;98867.34;8349884;28;20254;-86
2022/03/27 16:11:31;;;;;;;9.40;6.43;;;;;;;22.01;32.27;98866.25;8339672;28;20231;-85
2022/03/27 16:15:34;;;;;;;10.17;6.37;;;;;;;21.90;32.39;98868.88;8350285;28;20235;-87
2022/03/27 16:19:37;;;;;;;10.17;6.43;;;;;;;21.86;33.17;98862.16;8349327;28;20231;-86
2022/03/27 16:23:43;;;;;;;8.97;7.23;;;;;;;21.73;33.25;98871.97;8349589;28;20239;-87
2022/03/27 16:27:50;;;;;;;20.97;5.93;;;;;;;21.73;32.97;98870.16;8317328;28;20243;-86
2022/03/27 16:31:57;;;;;;;7.23;5.30;;;;;;;21.71;33.67;98871.25;8317231;28;20544;-86
2022/03/27 16:36:00;;;;;;;8.73;5.20;;;;;;;21.57;34.40;98859.09;8317003;28;20229;-89
2022/03/27 16:40:06;;;;;;;14.33;5.47;;;;;;;21.33;34.21;98859.97;8316942;28;20424;-86
2022/03/27 16:44:09;;;;;;;12.63;5.67;;;;;;;21.35;34.31;98852.78;8314867;28;20251;-86
2022/03/27 16:48:13;;;;;;;9.43;5.67;;;;;;;21.14;35.23;98857.03;8326241;28;20424;-87
2022/03/27 16:52:16;;;;;;;7.97;5.40;;;;;;;21.09;34.48;98855.56;8349011;28;20243;-85
2022/03/27 16:56:20;;;;;;;10.77;5.00;;;;;;;20.99;35.46;98851.06;8348174;28;20232;-88
2022/03/27 17:00:24;;;;;;;8.13;5.60;;;;;;;20.79;35.83;98855.16;8348950;28;20414;-88
2022/03/27 17:04:28;;;;;;;6.60;5.57;;;;;;;20.77;35.99;98857.91;8347644;28;20242;-88
2022/03/27 17:08:31;;;;;;;9.13;5.17;;;;;;;20.61;36.50;98863.41;8349287;28;20264;-88
2022/03/27 17:12:36;;;;;;;7.20;5.50;;;;;;;20.68;36.31;98861.22;8347722;28;20228;-88
2022/03/27 17:16:40;;;;;;;7.03;5.67;;;;;;;20.61;37.25;98873.94;8348558;28;20630;-88
2022/03/27 17:20:44;;;;;;;8.03;6.37;;;;;;;20.56;37.63;98865.53;8349097;28;20234;-93
2022/03/27 17:24:48;;;;;;;9.07;5.97;;;;;;;20.49;37.41;98865.09;8350016;28;20291;-88
2022/03/27 17:28:52;;;;;;;7.80;5.43;;;;;;;20.45;39.81;98866.28;8349202;28;20558;-90
2022/03/27 17:32:56;;;;;;;7.93;5.70;;;;;;;20.29;37.49;98869.13;8348184;28;20229;-88
2022/03/27 17:37:00;;;;;;;10.40;6.00;;;;;;;20.27;38.50;98875.44;8347789;28;20527;-90
2022/03/27 17:41:03;;;;;;;15.67;6.30;;;;;;;20.21;38.97;98875.88;8349384;28;20510;-90
2022/03/27 17:45:12;;;;;;;14.33;6.40;;;;;;;20.19;41.07;98868.09;8348816;28;20248;-87
2022/03/27 17:49:15;;;;;;;22.87;6.73;;;;;;;20.14;40.06;98864.09;8348249;28;20281;-89
2022/03/27 17:53:18;;;;;;;13.97;5.90;;;;;;;20.08;39.50;98871.47;8348323;28;20232;-88
2022/03/27 17:57:22;;;;;;;9.47;5.80;;;;;;;20.03;39.94;98870.09;8347351;28;20471;-88
2022/03/27 18:01:28;;;;;;;10.10;5.50;;;;;;;19.96;40.99;98867.06;8347462;28;20239;-88
2022/03/27 18:05:32;;;;;;;8.37;5.60;;;;;;;19.89;39.85;98871.06;8347938;28;20245;-88
2022/03/27 18:09:36;;;;;;;10.23;5.63;;;;;;;19.85;40.78;98870.41;8350167;28;20233;-90
2022/03/27 18:13:39;;;;;;;11.50;5.57;;;;;;;19.82;40.24;98869.78;8347935;28;20239;-90
2022/03/27 18:17:44;;;;;;;8.93;5.30;;;;;;;19.71;39.81;98870.50;8345909;28;20232;-89
2022/03/27 18:21:51;;;;;;;9.67;5.53;;;;;;;19.63;40.23;98875.41;8347157;28;20534;-85
2022/03/27 18:25:54;;;;;;;8.03;5.07;;;;;;;19.62;40.71;98874.56;8346934;28;20347;-87
2022/03/27 18:29:57;;;;;;;11.50;5.57;;;;;;;19.61;40.82;98887.81;8346858;28;20361;-88
2022/03/27 18:34:02;;;;;;;7.07;5.63;;;;;;;19.20;38.40;98883.53;8347862;28;20251;-89
2022/03/27 18:38:06;;;;;;;5.57;5.00;;;;;;;19.04;38.48;98891.53;8345718;28;20240;-85
2022/03/27 18:42:09;;;;;;;6.67;5.63;;;;;;;18.91;38.81;98896.75;8347172;28;20242;-88
2022/03/27 18:46:13;;;;;;;6.90;6.20;;;;;;;18.83;39.44;98905.09;8346958;28;20242;-90
2022/03/27 18:50:18;;;;;;;8.57;7.77;;;;;;;18.60;39.92;98896.03;8346653;28;20244;-91
2022/03/27 18:54:21;;;;;;;8.30;6.90;;;;;;;18.53;40.04;98897.34;8348592;28;20232;-91
2022/03/27 18:58:24;;;;;;;11.50;6.30;;;;;;;18.47;40.14;98909.06;8330269;28;20290;-92
2022/03/27 19:02:28;;;;;;;9.80;7.67;;;;;;;18.30;39.88;98915.34;8347863;28;20239;-91
2022/03/27 19:06:33;;;;;;;9.13;5.73;;;;;;;18.23;39.78;98914.00;8346509;28;20299;-89
2022/03/27 19:10:36;;;;;;;8.40;7.53;;;;;;;18.05;40.11;98915.97;8335010;28;20292;-92
2022/03/27 19:14:41;;;;;;;8.10;6.67;;;;;;;17.99;40.55;98924.19;8329378;28;20539;-96